sensor_id;sensor_type;location;lat;lon;timestamp;temperature;humidity
29813;DHT22;16707;48.106;11.548;2024-01-15T00:00:09;-0.30;99.90
29813;DHT22;16707;48.106;11.548;2024-01-15T00:02:36;-0.10;99.90
29813;DHT22;16707;48.106;11.548;2024-01-15T00:05:05;-0.20;99.90
29813;DHT22;16707;48.106;11.548;2024-01-15T00:07:31;-0.10;99.90
29813;DHT22;16707;48.106;11.548;2024-01-15T00:09:58;-0.10;99.90
29813;DHT22;16707;48.106;11.548;2024-01-15T00:12:25;-0.20;99.90
29813;DHT22;16707;48.106;11.548;2024-01-15T00:14:51;-0.10;99.90
29813;DHT22;16707;48.106;11.548;2024-01-15T00:17:18;0.00;99.90
29813;DHT22;16707;48.106;11.548;2024-01-15T00:19:45;0.00;99.90
29813;DHT22;16707;48.106;11.548;2024-01-15T00:22:13;0.00;99.90
29813;DHT22;16707;48.106;11.548;2024-01-15T00:24:39;0.00;99.90
29813;DHT22;16707;48.106;11.548;2024-01-15T00:27:06;0.10;99.90
29813;DHT22;16707;48.106;11.548;2024-01-15T00:29:33;0.20;99.90
29813;DHT22;16707;48.106;11.548;2024-01-15T00:32:00;0.20;99.90
29813;DHT22;16707;48.106;11.548;2024-01-15T00:34:26;0.30;99.90
29813;DHT22;16707;48.106;11.548;2024-01-15T00:36:53;0.20;99.90
29813;DHT22;16707;48.106;11.548;2024-01-15T00:39:21;0.20;99.90
29813;DHT22;16707;48.106;11.548;2024-01-15T00:41:48;0.30;99.90
29813;DHT22;16707;48.106;11.548;2024-01-15T00:44:15;0.40;99.90
29813;DHT22;16707;48.106;11.548;2024-01-15T00:46:42;0.30;99.90
29813;DHT22;16707;48.106;11.548;2024-01-15T00:49:09;0.40;99.90
29813;DHT22;16707;48.106;11.548;2024-01-15T00:51:35;0.50;99.90
29813;DHT22;16707;48.106;11.548;2024-01-15T00:54:02;0.60;99.90
29813;DHT22;16707;48.106;11.548;2024-01-15T00:56:30;0.80;99.90
29813;DHT22;16707;48.106;11.548;2024-01-15T00:58:57;0.90;99.90
29813;DHT22;16707;48.106;11.548;2024-01-15T01:01:24;1.00;99.90
29813;DHT22;16707;48.106;11.548;2024-01-15T01:03:51;1.00;99.90
29813;DHT22;16707;48.106;11.548;2024-01-15T01:06:17;1.00;99.90
29813;DHT22;16707;48.106;11.548;2024-01-15T01:08:44;1.00;99.90
29813;DHT22;16707;48.106;11.548;2024-01-15T01:11:12;0.90;99.90
29813;DHT22;16707;48.106;11.548;2024-01-15T01:13:40;0.90;99.90
29813;DHT22;16707;48.106;11.548;2024-01-15T01:16:07;1.00;99.90
29813;DHT22;16707;48.106;11.548;2024-01-15T01:18:34;0.90;99.90
29813;DHT22;16707;48.106;11.548;2024-01-15T01:21:01;0.90;99.90
29813;DHT22;16707;48.106;11.548;2024-01-15T01:23:28;0.70;99.90
29813;DHT22;16707;48.106;11.548;2024-01-15T01:25:55;0.40;99.90
29813;DHT22;16707;48.106;11.548;2024-01-15T01:28:21;0.30;99.90
29813;DHT22;16707;48.106;11.548;2024-01-15T01:30:49;0.10;99.90
29813;DHT22;16707;48.106;11.548;2024-01-15T01:33:16;-0.20;99.90
29813;DHT22;16707;48.106;11.548;2024-01-15T01:35:43;-0.30;99.90
29813;DHT22;16707;48.106;11.548;2024-01-15T01:38:10;-0.50;99.90
29813;DHT22;16707;48.106;11.548;2024-01-15T01:40:37;-0.80;99.90
29813;DHT22;16707;48.106;11.548;2024-01-15T01:43:04;-0.80;99.90
29813;DHT22;16707;48.106;11.548;2024-01-15T01:45:31;-0.90;99.90
29813;DHT22;16707;48.106;11.548;2024-01-15T01:47:59;-1.00;99.90
29813;DHT22;16707;48.106;11.548;2024-01-15T01:50:26;-1.00;99.90
29813;DHT22;16707;48.106;11.548;2024-01-15T01:52:53;-1.00;99.90
29813;DHT22;16707;48.106;11.548;2024-01-15T01:55:20;-1.30;99.90
29813;DHT22;16707;48.106;11.548;2024-01-15T01:57:47;-1.20;99.90
29813;DHT22;16707;48.106;11.548;2024-01-15T02:00:13;-1.20;99.90
29813;DHT22;16707;48.106;11.548;2024-01-15T02:02:40;-1.30;99.90
29813;DHT22;16707;48.106;11.548;2024-01-15T02:05:08;-1.50;99.90
29813;DHT22;16707;48.106;11.548;2024-01-15T02:07:35;-1.50;99.90
29813;DHT22;16707;48.106;11.548;2024-01-15T02:10:02;-1.50;99.90
29813;DHT22;16707;48.106;11.548;2024-01-15T02:12:29;-1.50;99.90
29813;DHT22;16707;48.106;11.548;2024-01-15T02:14:56;-1.50;99.90
29813;DHT22;16707;48.106;11.548;2024-01-15T02:17:23;-1.50;99.90
29813;DHT22;16707;48.106;11.548;2024-01-15T02:19:49;-1.60;99.90
29813;DHT22;16707;48.106;11.548;2024-01-15T02:22:17;-1.50;99.90
29813;DHT22;16707;48.106;11.548;2024-01-15T02:24:45;-1.30;99.90
29813;DHT22;16707;48.106;11.548;2024-01-15T02:27:12;-1.20;99.90
29813;DHT22;16707;48.106;11.548;2024-01-15T02:29:39;-1.20;99.90
29813;DHT22;16707;48.106;11.548;2024-01-15T02:32:07;-1.00;99.90
29813;DHT22;16707;48.106;11.548;2024-01-15T02:34:35;-0.80;99.90
29813;DHT22;16707;48.106;11.548;2024-01-15T02:37:01;-0.80;99.90
29813;DHT22;16707;48.106;11.548;2024-01-15T02:39:28;-0.80;99.90
29813;DHT22;16707;48.106;11.548;2024-01-15T02:41:56;-0.80;99.90
29813;DHT22;16707;48.106;11.548;2024-01-15T02:44:23;-0.60;99.90
29813;DHT22;16707;48.106;11.548;2024-01-15T02:46:50;-0.40;99.90
29813;DHT22;16707;48.106;11.548;2024-01-15T02:49:17;-0.40;99.90
29813;DHT22;16707;48.106;11.548;2024-01-15T02:51:43;-0.40;99.90
29813;DHT22;16707;48.106;11.548;2024-01-15T02:54:10;-0.30;99.90
29813;DHT22;16707;48.106;11.548;2024-01-15T02:56:37;-0.30;99.90
29813;DHT22;16707;48.106;11.548;2024-01-15T02:59:08;-0.30;99.90
29813;DHT22;16707;48.106;11.548;2024-01-15T03:01:34;-0.40;99.90
29813;DHT22;16707;48.106;11.548;2024-01-15T03:04:01;-0.20;99.90
29813;DHT22;16707;48.106;11.548;2024-01-15T03:06:28;-0.30;99.90
29813;DHT22;16707;48.106;11.548;2024-01-15T03:08:54;-0.20;99.90
29813;DHT22;16707;48.106;11.548;2024-01-15T03:11:21;-0.20;99.90
29813;DHT22;16707;48.106;11.548;2024-01-15T03:13:48;-0.30;99.90
29813;DHT22;16707;48.106;11.548;2024-01-15T03:16:16;-0.20;99.90
29813;DHT22;16707;48.106;11.548;2024-01-15T03:18:45;-0.20;99.90
29813;DHT22;16707;48.106;11.548;2024-01-15T03:21:11;-0.20;99.90
29813;DHT22;16707;48.106;11.548;2024-01-15T03:23:38;-0.10;99.90
29813;DHT22;16707;48.106;11.548;2024-01-15T03:26:05;-0.10;99.90
29813;DHT22;16707;48.106;11.548;2024-01-15T03:28:32;-0.10;99.90
29813;DHT22;16707;48.106;11.548;2024-01-15T03:30:58;-0.10;99.90
29813;DHT22;16707;48.106;11.548;2024-01-15T03:33:26;-0.10;99.90
29813;DHT22;16707;48.106;11.548;2024-01-15T03:35:53;-0.10;99.90
29813;DHT22;16707;48.106;11.548;2024-01-15T03:38:20;-0.10;99.90
29813;DHT22;16707;48.106;11.548;2024-01-15T03:40:46;-0.10;99.90
29813;DHT22;16707;48.106;11.548;2024-01-15T03:43:13;-0.10;99.90
29813;DHT22;16707;48.106;11.548;2024-01-15T03:45:40;-0.10;99.90
29813;DHT22;16707;48.106;11.548;2024-01-15T03:48:06;-0.10;99.90
29813;DHT22;16707;48.106;11.548;2024-01-15T03:50:34;-0.20;99.90
29813;DHT22;16707;48.106;11.548;2024-01-15T03:53:01;-0.20;99.90
29813;DHT22;16707;48.106;11.548;2024-01-15T03:55:28;-0.20;99.90
29813;DHT22;16707;48.106;11.548;2024-01-15T03:57:54;-0.10;99.90
29813;DHT22;16707;48.106;11.548;2024-01-15T04:00:21;-0.10;99.90
29813;DHT22;16707;48.106;11.548;2024-01-15T04:02:48;-0.10;99.90
29813;DHT22;16707;48.106;11.548;2024-01-15T04:05:15;-0.10;99.90
29813;DHT22;16707;48.106;11.548;2024-01-15T04:07:43;-0.20;99.90
29813;DHT22;16707;48.106;11.548;2024-01-15T04:10:10;-0.20;99.90
29813;DHT22;16707;48.106;11.548;2024-01-15T04:12:37;-0.20;99.90
29813;DHT22;16707;48.106;11.548;2024-01-15T04:15:04;-0.30;99.90
29813;DHT22;16707;48.106;11.548;2024-01-15T04:17:31;-0.20;99.90
29813;DHT22;16707;48.106;11.548;2024-01-15T04:19:57;-0.10;99.90
29813;DHT22;16707;48.106;11.548;2024-01-15T04:22:24;-0.10;99.90
29813;DHT22;16707;48.106;11.548;2024-01-15T04:24:53;-0.10;99.90
29813;DHT22;16707;48.106;11.548;2024-01-15T04:27:19;-0.20;99.90
29813;DHT22;16707;48.106;11.548;2024-01-15T04:29:46;-0.10;99.90
29813;DHT22;16707;48.106;11.548;2024-01-15T04:32:13;-0.10;99.90
29813;DHT22;16707;48.106;11.548;2024-01-15T04:34:39;-0.10;99.90
29813;DHT22;16707;48.106;11.548;2024-01-15T04:37:06;-0.10;99.90
29813;DHT22;16707;48.106;11.548;2024-01-15T04:39:33;-0.10;99.90
29813;DHT22;16707;48.106;11.548;2024-01-15T04:42:01;0.00;99.90
29813;DHT22;16707;48.106;11.548;2024-01-15T04:44:28;0.00;99.90
29813;DHT22;16707;48.106;11.548;2024-01-15T04:46:54;-0.10;99.90
29813;DHT22;16707;48.106;11.548;2024-01-15T04:49:21;0.00;99.90
29813;DHT22;16707;48.106;11.548;2024-01-15T04:51:48;-0.10;99.90
29813;DHT22;16707;48.106;11.548;2024-01-15T04:54:14;-0.20;99.90
29813;DHT22;16707;48.106;11.548;2024-01-15T04:56:43;-0.10;99.90
29813;DHT22;16707;48.106;11.548;2024-01-15T04:59:11;0.00;99.90
29813;DHT22;16707;48.106;11.548;2024-01-15T05:01:37;0.10;99.90
29813;DHT22;16707;48.106;11.548;2024-01-15T05:04:04;0.00;99.90
29813;DHT22;16707;48.106;11.548;2024-01-15T05:06:31;-0.20;99.90
29813;DHT22;16707;48.106;11.548;2024-01-15T05:08:58;-0.10;99.90
29813;DHT22;16707;48.106;11.548;2024-01-15T05:11:24;-0.10;99.90
29813;DHT22;16707;48.106;11.548;2024-01-15T05:13:51;-0.10;99.90
29813;DHT22;16707;48.106;11.548;2024-01-15T05:16:19;-0.20;99.90
29813;DHT22;16707;48.106;11.548;2024-01-15T05:18:46;-0.20;99.90
29813;DHT22;16707;48.106;11.548;2024-01-15T05:21:13;-0.20;99.90
29813;DHT22;16707;48.106;11.548;2024-01-15T05:23:39;-0.20;99.90
29813;DHT22;16707;48.106;11.548;2024-01-15T05:26:06;-0.20;99.90
29813;DHT22;16707;48.106;11.548;2024-01-15T05:28:34;-0.20;99.90
29813;DHT22;16707;48.106;11.548;2024-01-15T05:31:01;-0.10;99.90
29813;DHT22;16707;48.106;11.548;2024-01-15T05:33:28;-0.10;99.90
29813;DHT22;16707;48.106;11.548;2024-01-15T05:35:55;-0.10;99.90
29813;DHT22;16707;48.106;11.548;2024-01-15T05:38:22;-0.10;99.90
29813;DHT22;16707;48.106;11.548;2024-01-15T05:40:49;0.00;99.90
29813;DHT22;16707;48.106;11.548;2024-01-15T05:43:15;-0.10;99.90
29813;DHT22;16707;48.106;11.548;2024-01-15T05:45:43;-0.10;99.90
29813;DHT22;16707;48.106;11.548;2024-01-15T05:48:09;-0.10;99.90
29813;DHT22;16707;48.106;11.548;2024-01-15T05:50:37;0.00;99.90
29813;DHT22;16707;48.106;11.548;2024-01-15T05:53:04;-0.10;99.90
29813;DHT22;16707;48.106;11.548;2024-01-15T05:55:31;-0.10;99.90
29813;DHT22;16707;48.106;11.548;2024-01-15T05:57:58;-0.10;99.90
29813;DHT22;16707;48.106;11.548;2024-01-15T06:00:24;0.00;99.90
29813;DHT22;16707;48.106;11.548;2024-01-15T06:02:51;-0.10;99.90
29813;DHT22;16707;48.106;11.548;2024-01-15T06:05:18;-0.20;99.90
29813;DHT22;16707;48.106;11.548;2024-01-15T06:07:46;-0.20;99.90
29813;DHT22;16707;48.106;11.548;2024-01-15T06:10:13;-0.20;99.90
29813;DHT22;16707;48.106;11.548;2024-01-15T06:12:39;-0.20;99.90
29813;DHT22;16707;48.106;11.548;2024-01-15T06:15:06;-0.20;99.90
29813;DHT22;16707;48.106;11.548;2024-01-15T06:17:33;-0.20;99.90
29813;DHT22;16707;48.106;11.548;2024-01-15T06:20:00;-0.40;99.90
29813;DHT22;16707;48.106;11.548;2024-01-15T06:22:26;-0.20;99.90
29813;DHT22;16707;48.106;11.548;2024-01-15T06:24:54;-0.20;99.90
29813;DHT22;16707;48.106;11.548;2024-01-15T06:27:21;-0.30;99.90
29813;DHT22;16707;48.106;11.548;2024-01-15T06:29:48;-0.30;99.90
29813;DHT22;16707;48.106;11.548;2024-01-15T06:32:15;-0.10;99.90
29813;DHT22;16707;48.106;11.548;2024-01-15T06:34:41;-0.20;99.90
29813;DHT22;16707;48.106;11.548;2024-01-15T06:37:08;-0.20;99.90
29813;DHT22;16707;48.106;11.548;2024-01-15T06:39:35;-0.20;99.90
29813;DHT22;16707;48.106;11.548;2024-01-15T06:42:03;-0.20;99.90
29813;DHT22;16707;48.106;11.548;2024-01-15T06:44:30;-0.20;99.90
29813;DHT22;16707;48.106;11.548;2024-01-15T06:46:56;-0.20;99.90
29813;DHT22;16707;48.106;11.548;2024-01-15T06:49:27;-0.10;99.90
29813;DHT22;16707;48.106;11.548;2024-01-15T06:51:54;0.00;99.90
29813;DHT22;16707;48.106;11.548;2024-01-15T06:54:21;0.50;99.90
29813;DHT22;16707;48.106;11.548;2024-01-15T06:56:49;0.50;99.90
29813;DHT22;16707;48.106;11.548;2024-01-15T06:59:17;0.60;99.90
29813;DHT22;16707;48.106;11.548;2024-01-15T07:01:43;0.60;99.90
29813;DHT22;16707;48.106;11.548;2024-01-15T07:04:10;0.70;99.90
29813;DHT22;16707;48.106;11.548;2024-01-15T07:06:37;0.50;99.90
29813;DHT22;16707;48.106;11.548;2024-01-15T07:09:04;0.40;99.90
29813;DHT22;16707;48.106;11.548;2024-01-15T07:11:31;0.30;99.90
29813;DHT22;16707;48.106;11.548;2024-01-15T07:13:58;0.30;99.90
29813;DHT22;16707;48.106;11.548;2024-01-15T07:16:26;0.40;99.90
29813;DHT22;16707;48.106;11.548;2024-01-15T07:18:53;0.40;99.90
29813;DHT22;16707;48.106;11.548;2024-01-15T07:21:20;0.20;99.90
29813;DHT22;16707;48.106;11.548;2024-01-15T07:23:46;0.30;99.90
29813;DHT22;16707;48.106;11.548;2024-01-15T07:26:13;0.30;99.90
29813;DHT22;16707;48.106;11.548;2024-01-15T07:28:40;0.30;99.90
29813;DHT22;16707;48.106;11.548;2024-01-15T07:31:07;0.20;99.90
29813;DHT22;16707;48.106;11.548;2024-01-15T07:33:35;0.20;99.90
29813;DHT22;16707;48.106;11.548;2024-01-15T07:36:02;0.40;99.90
29813;DHT22;16707;48.106;11.548;2024-01-15T07:38:29;0.30;99.90
29813;DHT22;16707;48.106;11.548;2024-01-15T07:40:54;0.40;99.90
29813;DHT22;16707;48.106;11.548;2024-01-15T07:43:21;0.40;99.90
29813;DHT22;16707;48.106;11.548;2024-01-15T07:45:48;0.50;99.90
29813;DHT22;16707;48.106;11.548;2024-01-15T07:48:15;0.60;99.90
29813;DHT22;16707;48.106;11.548;2024-01-15T07:50:43;0.50;99.90
29813;DHT22;16707;48.106;11.548;2024-01-15T07:53:09;0.60;99.90
29813;DHT22;16707;48.106;11.548;2024-01-15T07:55:36;0.60;99.90
29813;DHT22;16707;48.106;11.548;2024-01-15T07:58:03;0.60;99.90
29813;DHT22;16707;48.106;11.548;2024-01-15T08:00:33;0.50;99.90
29813;DHT22;16707;48.106;11.548;2024-01-15T08:03:00;0.70;99.90
29813;DHT22;16707;48.106;11.548;2024-01-15T08:05:28;0.70;99.90
29813;DHT22;16707;48.106;11.548;2024-01-15T08:07:56;0.80;99.90
29813;DHT22;16707;48.106;11.548;2024-01-15T08:10:22;0.80;99.90
29813;DHT22;16707;48.106;11.548;2024-01-15T08:12:49;0.80;99.90
29813;DHT22;16707;48.106;11.548;2024-01-15T08:15:16;0.90;99.90
29813;DHT22;16707;48.106;11.548;2024-01-15T08:17:43;0.90;99.90
29813;DHT22;16707;48.106;11.548;2024-01-15T08:20:10;0.90;99.90
29813;DHT22;16707;48.106;11.548;2024-01-15T08:22:38;0.90;99.90
29813;DHT22;16707;48.106;11.548;2024-01-15T08:25:06;0.90;99.90
29813;DHT22;16707;48.106;11.548;2024-01-15T08:27:33;0.90;99.90
29813;DHT22;16707;48.106;11.548;2024-01-15T08:30:00;1.10;99.90
29813;DHT22;16707;48.106;11.548;2024-01-15T08:32:26;1.00;99.90
29813;DHT22;16707;48.106;11.548;2024-01-15T08:34:53;1.00;99.90
29813;DHT22;16707;48.106;11.548;2024-01-15T08:37:20;1.00;99.90
29813;DHT22;16707;48.106;11.548;2024-01-15T08:39:47;1.10;99.90
29813;DHT22;16707;48.106;11.548;2024-01-15T08:42:15;1.10;99.90
29813;DHT22;16707;48.106;11.548;2024-01-15T08:44:41;1.10;99.90
29813;DHT22;16707;48.106;11.548;2024-01-15T08:47:09;1.00;99.90
29813;DHT22;16707;48.106;11.548;2024-01-15T08:49:35;1.00;99.90
29813;DHT22;16707;48.106;11.548;2024-01-15T08:52:02;1.00;99.90
29813;DHT22;16707;48.106;11.548;2024-01-15T08:54:29;1.10;99.90
29813;DHT22;16707;48.106;11.548;2024-01-15T08:56:56;1.10;99.90
29813;DHT22;16707;48.106;11.548;2024-01-15T08:59:24;1.00;99.90
29813;DHT22;16707;48.106;11.548;2024-01-15T09:01:51;1.10;99.90
29813;DHT22;16707;48.106;11.548;2024-01-15T09:04:18;1.10;99.90
29813;DHT22;16707;48.106;11.548;2024-01-15T09:06:45;1.10;99.90
29813;DHT22;16707;48.106;11.548;2024-01-15T09:09:12;1.10;99.90
29813;DHT22;16707;48.106;11.548;2024-01-15T09:11:39;1.20;99.90
29813;DHT22;16707;48.106;11.548;2024-01-15T09:14:05;1.20;99.90
29813;DHT22;16707;48.106;11.548;2024-01-15T09:16:34;1.30;99.90
29813;DHT22;16707;48.106;11.548;2024-01-15T09:19:01;1.30;99.90
29813;DHT22;16707;48.106;11.548;2024-01-15T09:21:28;1.40;99.90
29813;DHT22;16707;48.106;11.548;2024-01-15T09:23:55;1.30;99.90
29813;DHT22;16707;48.106;11.548;2024-01-15T09:26:22;1.40;99.90
29813;DHT22;16707;48.106;11.548;2024-01-15T09:28:49;1.40;99.90
29813;DHT22;16707;48.106;11.548;2024-01-15T09:31:16;1.60;99.90
29813;DHT22;16707;48.106;11.548;2024-01-15T09:33:46;1.70;99.90
29813;DHT22;16707;48.106;11.548;2024-01-15T09:36:13;1.70;99.90
29813;DHT22;16707;48.106;11.548;2024-01-15T09:38:40;1.70;99.90
29813;DHT22;16707;48.106;11.548;2024-01-15T09:41:07;1.70;99.90
29813;DHT22;16707;48.106;11.548;2024-01-15T09:43:34;1.80;99.90
29813;DHT22;16707;48.106;11.548;2024-01-15T09:46:02;1.90;99.90
29813;DHT22;16707;48.106;11.548;2024-01-15T09:48:29;1.90;99.90
29813;DHT22;16707;48.106;11.548;2024-01-15T09:51:00;2.00;99.90
29813;DHT22;16707;48.106;11.548;2024-01-15T09:53:27;2.00;99.90
29813;DHT22;16707;48.106;11.548;2024-01-15T09:55:54;2.00;99.90
29813;DHT22;16707;48.106;11.548;2024-01-15T09:58:21;2.00;99.90
29813;DHT22;16707;48.106;11.548;2024-01-15T10:00:48;2.10;99.90
29813;DHT22;16707;48.106;11.548;2024-01-15T10:03:15;2.10;99.90
29813;DHT22;16707;48.106;11.548;2024-01-15T10:05:42;2.20;99.90
29813;DHT22;16707;48.106;11.548;2024-01-15T10:08:11;2.20;99.90
29813;DHT22;16707;48.106;11.548;2024-01-15T10:10:38;2.20;99.90
29813;DHT22;16707;48.106;11.548;2024-01-15T10:13:04;2.30;99.90
29813;DHT22;16707;48.106;11.548;2024-01-15T10:15:33;2.30;99.90
29813;DHT22;16707;48.106;11.548;2024-01-15T10:18:02;2.40;99.90
29813;DHT22;16707;48.106;11.548;2024-01-15T10:20:29;2.20;99.90
29813;DHT22;16707;48.106;11.548;2024-01-15T10:22:58;2.30;99.90
29813;DHT22;16707;48.106;11.548;2024-01-15T10:25:26;2.40;99.90
29813;DHT22;16707;48.106;11.548;2024-01-15T10:27:59;2.60;99.90
29813;DHT22;16707;48.106;11.548;2024-01-15T10:30:26;2.70;99.90
29813;DHT22;16707;48.106;11.548;2024-01-15T10:32:57;2.80;99.90
29813;DHT22;16707;48.106;11.548;2024-01-15T10:35:25;2.90;99.90
29813;DHT22;16707;48.106;11.548;2024-01-15T10:37:52;2.90;99.30
29813;DHT22;16707;48.106;11.548;2024-01-15T10:40:19;2.90;99.20
29813;DHT22;16707;48.106;11.548;2024-01-15T10:42:48;2.90;98.80
29813;DHT22;16707;48.106;11.548;2024-01-15T10:45:14;2.80;98.90
29813;DHT22;16707;48.106;11.548;2024-01-15T10:47:41;2.90;99.00
29813;DHT22;16707;48.106;11.548;2024-01-15T10:50:09;2.90;98.80
29813;DHT22;16707;48.106;11.548;2024-01-15T10:52:36;3.10;98.50
29813;DHT22;16707;48.106;11.548;2024-01-15T10:55:03;3.30;97.80
29813;DHT22;16707;48.106;11.548;2024-01-15T10:57:29;3.40;97.40
29813;DHT22;16707;48.106;11.548;2024-01-15T10:59:58;3.40;97.20
29813;DHT22;16707;48.106;11.548;2024-01-15T11:02:24;3.40;97.30
29813;DHT22;16707;48.106;11.548;2024-01-15T11:04:52;3.30;97.60
29813;DHT22;16707;48.106;11.548;2024-01-15T11:07:20;3.30;97.90
29813;DHT22;16707;48.106;11.548;2024-01-15T11:09:48;3.30;97.80
29813;DHT22;16707;48.106;11.548;2024-01-15T11:12:15;3.30;97.50
29813;DHT22;16707;48.106;11.548;2024-01-15T11:14:45;3.30;98.10
29813;DHT22;16707;48.106;11.548;2024-01-15T11:17:14;3.40;97.90
29813;DHT22;16707;48.106;11.548;2024-01-15T11:19:44;3.40;97.30
29813;DHT22;16707;48.106;11.548;2024-01-15T11:25:12;3.50;96.90
29813;DHT22;16707;48.106;11.548;2024-01-15T11:27:39;3.60;97.00
29813;DHT22;16707;48.106;11.548;2024-01-15T11:30:07;3.70;96.70
29813;DHT22;16707;48.106;11.548;2024-01-15T11:32:37;3.60;96.30
29813;DHT22;16707;48.106;11.548;2024-01-15T11:35:06;3.70;96.30
29813;DHT22;16707;48.106;11.548;2024-01-15T11:40:20;3.60;96.60
29813;DHT22;16707;48.106;11.548;2024-01-15T11:42:47;3.50;97.00
29813;DHT22;16707;48.106;11.548;2024-01-15T11:45:15;3.10;96.90
29813;DHT22;16707;48.106;11.548;2024-01-15T11:48:09;2.90;97.80
29813;DHT22;16707;48.106;11.548;2024-01-15T11:50:36;2.50;98.80
29813;DHT22;16707;48.106;11.548;2024-01-15T11:53:07;2.10;99.40
29813;DHT22;16707;48.106;11.548;2024-01-15T11:55:38;1.80;99.90
29813;DHT22;16707;48.106;11.548;2024-01-15T11:58:07;1.60;99.90
29813;DHT22;16707;48.106;11.548;2024-01-15T12:00:34;1.50;99.90
29813;DHT22;16707;48.106;11.548;2024-01-15T12:03:02;1.30;99.90
29813;DHT22;16707;48.106;11.548;2024-01-15T12:05:31;1.20;99.90
29813;DHT22;16707;48.106;11.548;2024-01-15T12:07:58;1.20;99.90
29813;DHT22;16707;48.106;11.548;2024-01-15T12:10:24;1.00;99.90
29813;DHT22;16707;48.106;11.548;2024-01-15T12:12:57;1.10;99.90
29813;DHT22;16707;48.106;11.548;2024-01-15T12:15:23;1.00;99.90
29813;DHT22;16707;48.106;11.548;2024-01-15T12:17:50;1.00;99.90
29813;DHT22;16707;48.106;11.548;2024-01-15T12:20:18;1.20;99.90
29813;DHT22;16707;48.106;11.548;2024-01-15T12:22:45;1.40;99.90
29813;DHT22;16707;48.106;11.548;2024-01-15T12:25:12;1.60;99.90
29813;DHT22;16707;48.106;11.548;2024-01-15T12:27:39;1.70;99.90
29813;DHT22;16707;48.106;11.548;2024-01-15T12:30:06;1.80;99.90
29813;DHT22;16707;48.106;11.548;2024-01-15T12:32:34;1.70;99.90
29813;DHT22;16707;48.106;11.548;2024-01-15T12:35:01;1.70;99.90
29813;DHT22;16707;48.106;11.548;2024-01-15T12:37:29;1.50;99.90
29813;DHT22;16707;48.106;11.548;2024-01-15T12:39:55;1.50;99.90
29813;DHT22;16707;48.106;11.548;2024-01-15T12:42:22;1.30;99.90
29813;DHT22;16707;48.106;11.548;2024-01-15T12:44:49;1.50;99.90
29813;DHT22;16707;48.106;11.548;2024-01-15T12:47:16;1.50;99.90
29813;DHT22;16707;48.106;11.548;2024-01-15T12:49:46;1.40;99.90
29813;DHT22;16707;48.106;11.548;2024-01-15T12:52:13;1.60;99.90
29813;DHT22;16707;48.106;11.548;2024-01-15T12:54:41;1.50;99.90
29813;DHT22;16707;48.106;11.548;2024-01-15T12:57:08;1.60;99.90
29813;DHT22;16707;48.106;11.548;2024-01-15T12:59:35;1.70;99.90
29813;DHT22;16707;48.106;11.548;2024-01-15T13:02:01;2.30;99.90
29813;DHT22;16707;48.106;11.548;2024-01-15T13:04:28;2.90;99.90
29813;DHT22;16707;48.106;11.548;2024-01-15T13:06:55;3.50;99.90
29813;DHT22;16707;48.106;11.548;2024-01-15T13:09:22;3.90;99.90
29813;DHT22;16707;48.106;11.548;2024-01-15T13:11:50;4.50;99.90
29813;DHT22;16707;48.106;11.548;2024-01-15T13:14:17;5.10;99.50
29813;DHT22;16707;48.106;11.548;2024-01-15T13:16:44;5.30;97.60
29813;DHT22;16707;48.106;11.548;2024-01-15T13:19:11;5.30;96.60
29813;DHT22;16707;48.106;11.548;2024-01-15T13:21:38;5.20;96.60
29813;DHT22;16707;48.106;11.548;2024-01-15T13:24:05;5.00;97.00
29813;DHT22;16707;48.106;11.548;2024-01-15T13:26:33;4.90;97.00
29813;DHT22;16707;48.106;11.548;2024-01-15T13:29:01;4.70;97.70
29813;DHT22;16707;48.106;11.548;2024-01-15T13:31:29;4.50;97.50
29813;DHT22;16707;48.106;11.548;2024-01-15T13:33:55;4.30;98.00
29813;DHT22;16707;48.106;11.548;2024-01-15T13:36:23;4.20;98.60
29813;DHT22;16707;48.106;11.548;2024-01-15T13:38:50;4.20;99.00
29813;DHT22;16707;48.106;11.548;2024-01-15T13:41:16;4.10;98.50
29813;DHT22;16707;48.106;11.548;2024-01-15T13:43:49;3.90;98.70
29813;DHT22;16707;48.106;11.548;2024-01-15T13:46:17;3.80;99.30
29813;DHT22;16707;48.106;11.548;2024-01-15T13:48:44;3.80;99.70
29813;DHT22;16707;48.106;11.548;2024-01-15T13:51:11;3.80;99.70
29813;DHT22;16707;48.106;11.548;2024-01-15T13:53:38;3.80;99.40
29813;DHT22;16707;48.106;11.548;2024-01-15T13:56:05;3.70;99.70
29813;DHT22;16707;48.106;11.548;2024-01-15T13:58:32;3.60;99.90
29813;DHT22;16707;48.106;11.548;2024-01-15T14:00:59;3.60;99.90
29813;DHT22;16707;48.106;11.548;2024-01-15T14:03:27;3.50;99.90
29813;DHT22;16707;48.106;11.548;2024-01-15T14:05:55;3.50;99.90
29813;DHT22;16707;48.106;11.548;2024-01-15T14:08:21;3.50;99.90
29813;DHT22;16707;48.106;11.548;2024-01-15T14:10:48;3.30;99.90
29813;DHT22;16707;48.106;11.548;2024-01-15T14:13:15;3.30;99.90
29813;DHT22;16707;48.106;11.548;2024-01-15T14:15:41;3.20;99.90
29813;DHT22;16707;48.106;11.548;2024-01-15T14:18:08;3.10;99.90
29813;DHT22;16707;48.106;11.548;2024-01-15T14:20:36;3.10;99.90
29813;DHT22;16707;48.106;11.548;2024-01-15T14:23:03;3.10;99.90
29813;DHT22;16707;48.106;11.548;2024-01-15T14:25:30;3.00;99.90
29813;DHT22;16707;48.106;11.548;2024-01-15T14:27:56;2.90;99.90
29813;DHT22;16707;48.106;11.548;2024-01-15T14:30:23;2.80;99.90
29813;DHT22;16707;48.106;11.548;2024-01-15T14:32:50;2.80;99.90
29813;DHT22;16707;48.106;11.548;2024-01-15T14:35:17;2.80;99.90
29813;DHT22;16707;48.106;11.548;2024-01-15T14:37:45;2.80;99.90
29813;DHT22;16707;48.106;11.548;2024-01-15T14:40:13;2.70;99.90
29813;DHT22;16707;48.106;11.548;2024-01-15T14:42:41;2.60;99.90
29813;DHT22;16707;48.106;11.548;2024-01-15T14:45:08;2.50;99.90
29813;DHT22;16707;48.106;11.548;2024-01-15T14:47:37;2.40;99.90
29813;DHT22;16707;48.106;11.548;2024-01-15T14:50:04;2.30;99.90
29813;DHT22;16707;48.106;11.548;2024-01-15T14:52:31;2.20;99.90
29813;DHT22;16707;48.106;11.548;2024-01-15T14:55:00;2.10;99.90
29813;DHT22;16707;48.106;11.548;2024-01-15T14:57:27;2.10;99.90
29813;DHT22;16707;48.106;11.548;2024-01-15T14:59:53;2.10;99.90
29813;DHT22;16707;48.106;11.548;2024-01-15T15:02:20;2.10;99.90
29813;DHT22;16707;48.106;11.548;2024-01-15T15:04:47;2.20;99.90
29813;DHT22;16707;48.106;11.548;2024-01-15T15:07:13;2.20;99.90
29813;DHT22;16707;48.106;11.548;2024-01-15T15:09:40;2.20;99.90
29813;DHT22;16707;48.106;11.548;2024-01-15T15:12:08;2.10;99.90
29813;DHT22;16707;48.106;11.548;2024-01-15T15:14:35;2.20;99.90
29813;DHT22;16707;48.106;11.548;2024-01-15T15:17:03;2.10;99.90
29813;DHT22;16707;48.106;11.548;2024-01-15T15:19:30;2.20;99.90
29813;DHT22;16707;48.106;11.548;2024-01-15T15:21:57;2.10;99.90
29813;DHT22;16707;48.106;11.548;2024-01-15T15:24:24;2.00;99.90
29813;DHT22;16707;48.106;11.548;2024-01-15T15:26:50;1.90;99.90
29813;DHT22;16707;48.106;11.548;2024-01-15T15:29:18;1.80;99.90